• Join FlightAware (Why Join?)
  • Login
  • US Flag 
01:26AM EDT


 

Airport Tracker/Info


-or-


 

Live Flight TrackerFlight Track Log ✈ AWI3891 ✈ 14-Aug-2014 ✈ KPHL - KBGR

Flight Track Log - Related Links

Times and Time Zones

All times are in EDT time to prevent confusion due to time zone crossing. See the AWI3891 flight status page for this flight to view local times or setup timezone preferences in your user account.

Time Position Orientation Groundspeed Altitude Reporting Facility
EDT Latitude Longitude Course Direction KTS MPH feet Rate Location/Type
01:37PM 39.8667 -75.2667 90° East 180 207 600  Level Philadelphia TRACON
01:38PM 39.8000 -75.3333 218° Southwest 200 230 4,900 2,340 Climbing Philadelphia TRACON
01:39PM 39.7333 -75.3167 169° South 270 311 6,800 1,800 Climbing Philadelphia TRACON
01:40PM 39.7856 -74.6886 75° East  Level FlightAware Approximate
01:40PM 39.7500 -75.2167 78° East 317 365 8,400  Level Philadelphia TRACON
01:41PM 39.8000 -74.5490 90° East  Level FlightAware Approximate
01:41PM 39.7500 -75.1167 90° East 320 368 10,500  Level Philadelphia TRACON
01:42PM 39.8167 -74.4178 90° East  Level FlightAware Approximate
01:43PM 39.7697 -74.9167 83° East 377 434 12,000  Level New York Center
01:44PM 39.7892 -74.7744 80° East 387 445 13,400 1,560 Climbing New York Center
01:45PM 39.8022 -74.6347 83° East 387 445 15,100 1,800 Climbing New York Center
01:46PM 39.8192 -74.4978 81° East 387 445 17,100 1,620 Climbing New York Center
01:47PM 39.8608 -74.3675 67° East 382 440 18,300 1,020 Climbing New York Center
01:48PM 39.9025 -74.2289 69° East 387 445 19,200 960 Climbing New York Center
01:50PM 40.0250 -73.9736 58° Northeast 428 493 21,200 1,020 Climbing Boston Center
01:51PM 40.0947 -73.8481 54° Northeast 428 493 22,200 840 Climbing Boston Center
01:52PM 40.1642 -73.7206 54° Northeast 428 493 23,000 360 Climbing Boston Center
01:53PM 40.2389 -73.5867 54° Northeast 454 522 23,000 480 Level Boston Center
01:54PM 40.3139 -73.4497 54° Northeast 461 531 24,000 900 Climbing Boston Center
01:55PM 40.4108 -73.3475 39° Northeast 457 526 24,900 840 Climbing Boston Center
01:56PM 40.5122 -73.2511 36° Northeast 454 522 25,800 960 Climbing Boston Center
01:57PM 40.6347 -73.1369 35° Northeast 452 520 26,900 1,020 Climbing Boston Center
01:58PM 40.7406 -73.0339 36° Northeast 451 519 28,000 900 Climbing Boston Center
01:59PM 40.8425 -72.9400 35° Northeast 450 518 28,800 420 Climbing Boston Center
02:00PM 40.9453 -72.8411 36° Northeast 451 519 29,000 60 Climbing Boston Center
02:01PM 41.0508 -72.7389 36° Northeast 463 533 29,000  Level Boston Center
02:02PM 41.1547 -72.6389 36° Northeast 463 533 29,000  Level Boston Center
02:03PM 41.2597 -72.5372 36° Northeast 463 533 29,000  Level Boston Center
02:04PM 41.3636 -72.4356 36° Northeast 463 533 29,000  Level Boston Center
02:05PM 41.4869 -72.3136 37° Northeast 463 533 29,000  Level Boston Center
02:06PM 41.5917 -72.2111 36° Northeast 463 533 29,000  Level Boston Center
02:07PM 41.6958 -72.1086 36° Northeast 463 533 29,000  Level Boston Center
02:08PM 41.7992 -72.0067 36° Northeast 463 533 29,000  Level Boston Center
02:09PM 41.9028 -71.9044 36° Northeast 463 533 29,000  Level Boston Center
02:10PM 42.0061 -71.8017 36° Northeast 463 533 29,000  Level Boston Center
02:11PM 42.1092 -71.6986 37° Northeast 463 533 29,000  Level Boston Center
02:12PM 42.2325 -71.5731 37° Northeast 462 532 29,000  Level Boston Center
02:14PM 42.4372 -71.3656 36° Northeast 462 532 29,000  Level Boston Center
02:15PM 42.5403 -71.2614 37° Northeast 462 532 29,000  Level Boston Center
02:16PM 42.6425 -71.1564 37° Northeast 461 531 29,000  Level Boston Center
02:18PM 42.7447 -71.0508 37° Northeast 461 531 29,000  Level Boston Center
02:19PM 42.8481 -70.9453 37° Northeast 461 531 29,000  Level Boston Center
02:20PM 42.9706 -70.8169 37° Northeast 462 532 29,000  Level Boston Center
02:21PM 43.0731 -70.7100 37° Northeast 462 532 29,000  Level Boston Center
02:22PM 43.1761 -70.6017 37° Northeast 463 533 29,000 -300 Level Boston Center
02:23PM 43.2792 -70.4936 37° Northeast 464 534 28,400 -780 Descending Boston Center
02:24PM 43.3944 -70.3708 38° Northeast 488 562 27,400 -1,260 Descending Boston Center
02:25PM 43.5053 -70.2539 37° Northeast 498 573 25,800 -1,500 Descending Boston Center
02:26PM 43.6133 -70.1389 38° Northeast 492 566 24,300 -1,500 Descending Boston Center
02:27PM 43.7192 -70.0258 38° Northeast 482 555 22,800 -1,620 Descending Boston Center
02:28PM 43.8228 -69.9133 38° Northeast 476 548 21,000 -1,920 Descending Boston Center
02:29PM 43.9389 -69.7889 38° Northeast 465 535 18,900 -2,040 Descending Boston Center
02:30PM 44.0456 -69.6725 38° Northeast 456 525 16,900 -1,740 Descending Boston Center
02:31PM 44.1417 -69.5681 38° Northeast 442 509 15,400 -1,740 Descending Boston Center
02:32PM 44.2333 -69.4744 36° Northeast 409 471 13,400 -1,980 Descending Boston Center
02:33PM 44.3328 -69.4253 19° North 377 434 11,400 -1,620 Descending Boston Center
02:34PM 44.4225 -69.3861 17° North 339 390 10,100 -1,620 Descending Boston Center
02:35PM 44.5064 -69.3483 18° North 320 368 8,200 -1,620 Descending Boston Center
02:36PM 44.5856 -69.3067 21° North 310 357 6,900 -1,560 Descending Boston Center
02:37PM 44.6731 -69.2583 21° North 289 333 5,000 -960 Descending Boston Center
02:38PM 44.7408 -69.2192 22° Northeast 272 313 5,000 -360 Level Boston Center
02:39PM 44.7969 -69.1903 20° North 223 257 4,300 -540 Descending Boston Center
02:40PM 44.8497 -69.1608 22° Northeast 208 239 4,000 -540 Descending Boston Center
02:41PM 44.9028 -69.1811 345° North 203 234 3,200 -540 Descending Boston Center
02:42PM 44.9517 -69.1700 North 199 229 3,000 -120 Descending Boston Center
02:43PM 44.9753 -69.0942 66° East 204 235 3,000  Level Boston Center
02:44PM 44.9519 -69.0356 119° Southeast 177 204 3,000 -480 Level Boston Center
02:45PM 44.9175 -68.9897 137° Southeast 174 200 2,100 -480 Descending Boston Center
02:46PM 44.8853 -68.9431 134° Southeast 170 196 2,100 -420 Level Boston Center
02:47PM 44.8569 -68.9011 134° Southeast 160 184 1,300 -780 Descending Boston Center
02:48PM 44.8294 -68.8617 135° Southeast 149 171 600 -540 Descending Boston Center
02:49PM 44.8036 -68.8242 134° Southeast 146 168 300 -300 Descending Boston Center